| Date | Time | Temp. (oF) | Dew Point (oF) | Rel. Hum. (%) | Press. (in.) | Wind Dir. | Wind Speed (mph) | Hourly Rainfall (in.) |
|
|---|---|---|---|---|---|---|---|---|---|
| 1 | miss | miss | miss | miss | miss | miss | miss | miss | |
| 2 | 03/09 | 23:00 | 31 | 17 | 56 | 30.39 | NNW | 3 | 0.00 |
| 3 | 03/09 | 22:00 | 31 | 16 | 54 | 30.39 | NW | 2 | 0.00 |
| 4 | 03/09 | 21:00 | 32 | 16 | 53 | 30.37 | NW | 4 | 0.00 |
| 5 | 03/09 | 20:00 | 34 | 16 | 49 | 30.34 | NW | 10 | 0.00 |
| 6 | 03/09 | 19:00 | 35 | 16 | 46 | 30.30 | NNW | 4 | 0.00 |
| 7 | 03/09 | 18:00 | 37 | 17 | 44 | 30.26 | W | 5 | 0.00 |
| 8 | 03/09 | 17:00 | 39 | 16 | 40 | 30.21 | WSW | 7 | 0.00 |
| 9 | 03/09 | 16:00 | 39 | 14 | 37 | 30.20 | W | 7 | 0.00 |
| 10 | 03/09 | 15:00 | 39 | 16 | 39 | 30.19 | WNW | 10 | 0.00 |
| 11 | 03/09 | 14:00 | 38 | 15 | 39 | 30.20 | NW | 7 | 0.00 |
| 12 | 03/09 | 13:00 | 37 | 17 | 44 | 30.22 | WNW | 17 | 0.00 |
| 13 | 03/09 | 12:00 | 35 | 15 | 45 | 30.23 | WSW | 10 | 0.00 |
| 14 | 03/09 | 11:00 | 34 | 15 | 47 | 30.21 | SW | 13 | 0.00 |
| 15 | 03/09 | 10:00 | 31 | 14 | 51 | 30.20 | WNW | 21 | 0.00 |
| 16 | 03/09 | 09:00 | 29 | 13 | 52 | 30.19 | S | 10 | 0.00 |
| 17 | 03/09 | 08:00 | 28 | 13 | 55 | 30.17 | W | 5 | 0.00 |
| 18 | 03/09 | 07:00 | 26 | 12 | 57 | 30.11 | WSW | 7 | 0.00 |
| 19 | 03/09 | 06:00 | 26 | 11 | 54 | 30.08 | SW | 6 | 0.00 |
| 20 | 03/09 | 05:00 | 27 | 15 | 62 | 30.04 | S | 9 | 0.00 |
| 21 | 03/09 | 04:00 | 28 | 17 | 63 | 29.99 | W | 9 | 0.00 |
| 22 | 03/09 | 03:00 | 28 | 16 | 62 | 29.95 | S | 8 | 0.00 |
| 23 | 03/09 | 02:00 | 29 | 17 | 62 | 29.92 | SSW | 13 | 0.00 |
| 24 | 03/09 | 01:00 | 30 | 17 | 59 | 29.86 | WNW | 6 | 0.00 |